sensor_id;sensor_type;location;lat;lon;timestamp;P1;durP1;ratioP1;P2;durP2;ratioP2
60917;SDS011;46792;38.854;-9.384;2023-05-20T00:00:01;16.90;;;4.72;;
60917;SDS011;46792;38.854;-9.384;2023-05-20T00:02:42;14.98;;;4.75;;
60917;SDS011;46792;38.854;-9.384;2023-05-20T00:04:42;21.08;;;5.25;;
60917;SDS011;46792;38.854;-9.384;2023-05-20T00:06:43;13.95;;;4.75;;
60917;SDS011;46792;38.854;-9.384;2023-05-20T00:08:43;13.43;;;5.00;;
60917;SDS011;46792;38.854;-9.384;2023-05-20T00:13:22;20.02;;;6.93;;
60917;SDS011;46792;38.854;-9.384;2023-05-20T00:20:41;12.93;;;4.93;;
60917;SDS011;46792;38.854;-9.384;2023-05-20T00:22:41;12.88;;;4.18;;
60917;SDS011;46792;38.854;-9.384;2023-05-20T00:25:01;17.10;;;4.97;;
60917;SDS011;46792;38.854;-9.384;2023-05-20T00:27:01;11.85;;;5.82;;
60917;SDS011;46792;38.854;-9.384;2023-05-20T00:29:02;17.65;;;5.53;;
60917;SDS011;46792;38.854;-9.384;2023-05-20T00:31:03;16.55;;;5.63;;
60917;SDS011;46792;38.854;-9.384;2023-05-20T00:33:22;15.38;;;5.35;;
60917;SDS011;46792;38.854;-9.384;2023-05-20T00:35:22;12.73;;;4.85;;
60917;SDS011;46792;38.854;-9.384;2023-05-20T00:37:23;23.05;;;5.90;;
60917;SDS011;46792;38.854;-9.384;2023-05-20T00:39:24;10.18;;;4.30;;
60917;SDS011;46792;38.854;-9.384;2023-05-20T00:41:25;13.68;;;5.15;;
60917;SDS011;46792;38.854;-9.384;2023-05-20T00:43:26;11.90;;;4.20;;
60917;SDS011;46792;38.854;-9.384;2023-05-20T00:45:26;16.40;;;5.60;;
60917;SDS011;46792;38.854;-9.384;2023-05-20T00:47:28;17.63;;;5.68;;
60917;SDS011;46792;38.854;-9.384;2023-05-20T00:49:32;20.42;;;6.18;;
60917;SDS011;46792;38.854;-9.384;2023-05-20T00:51:33;19.30;;;5.43;;
60917;SDS011;46792;38.854;-9.384;2023-05-20T00:53:34;13.68;;;4.60;;
60917;SDS011;46792;38.854;-9.384;2023-05-20T00:55:35;21.98;;;5.72;;
60917;SDS011;46792;38.854;-9.384;2023-05-20T00:57:37;12.65;;;5.03;;
60917;SDS011;46792;38.854;-9.384;2023-05-20T00:59:38;18.30;;;5.50;;
60917;SDS011;46792;38.854;-9.384;2023-05-20T01:02:00;12.77;;;5.32;;
60917;SDS011;46792;38.854;-9.384;2023-05-20T01:04:02;21.52;;;6.20;;
60917;SDS011;46792;38.854;-9.384;2023-05-20T01:06:03;15.40;;;4.70;;
60917;SDS011;46792;38.854;-9.384;2023-05-20T01:08:04;17.52;;;5.47;;
60917;SDS011;46792;38.854;-9.384;2023-05-20T01:10:23;15.25;;;4.88;;
60917;SDS011;46792;38.854;-9.384;2023-05-20T01:12:48;14.77;;;5.43;;
60917;SDS011;46792;38.854;-9.384;2023-05-20T01:15:11;15.80;;;5.20;;
60917;SDS011;46792;38.854;-9.384;2023-05-20T01:17:14;20.42;;;5.20;;
60917;SDS011;46792;38.854;-9.384;2023-05-20T01:19:21;23.67;;;5.40;;
60917;SDS011;46792;38.854;-9.384;2023-05-20T01:21:52;14.77;;;4.70;;
60917;SDS011;46792;38.854;-9.384;2023-05-20T01:24:13;16.75;;;6.45;;
60917;SDS011;46792;38.854;-9.384;2023-05-20T01:26:14;16.48;;;5.40;;
60917;SDS011;46792;38.854;-9.384;2023-05-20T01:28:14;18.15;;;6.70;;
60917;SDS011;46792;38.854;-9.384;2023-05-20T01:30:18;20.73;;;5.47;;
60917;SDS011;46792;38.854;-9.384;2023-05-20T01:32:22;10.85;;;5.10;;
60917;SDS011;46792;38.854;-9.384;2023-05-20T01:34:27;13.05;;;5.88;;
60917;SDS011;46792;38.854;-9.384;2023-05-20T01:36:28;21.25;;;5.85;;
60917;SDS011;46792;38.854;-9.384;2023-05-20T01:38:31;23.60;;;5.20;;
60917;SDS011;46792;38.854;-9.384;2023-05-20T01:45:43;18.92;;;5.25;;
60917;SDS011;46792;38.854;-9.384;2023-05-20T01:48:02;21.25;;;5.53;;
60917;SDS011;46792;38.854;-9.384;2023-05-20T01:50:04;18.63;;;5.10;;
60917;SDS011;46792;38.854;-9.384;2023-05-20T01:52:05;22.08;;;5.68;;
60917;SDS011;46792;38.854;-9.384;2023-05-20T01:54:07;29.50;;;6.25;;
60917;SDS011;46792;38.854;-9.384;2023-05-20T01:58:45;23.02;;;6.40;;
60917;SDS011;46792;38.854;-9.384;2023-05-20T02:01:04;26.38;;;5.85;;
60917;SDS011;46792;38.854;-9.384;2023-05-20T02:03:05;18.75;;;5.47;;
60917;SDS011;46792;38.854;-9.384;2023-05-20T02:05:06;17.35;;;6.05;;
60917;SDS011;46792;38.854;-9.384;2023-05-20T02:07:08;13.70;;;6.07;;
60917;SDS011;46792;38.854;-9.384;2023-05-20T02:12:06;19.67;;;5.45;;
60917;SDS011;46792;38.854;-9.384;2023-05-20T02:16:48;19.42;;;5.60;;
60917;SDS011;46792;38.854;-9.384;2023-05-20T02:24:08;16.23;;;5.75;;
60917;SDS011;46792;38.854;-9.384;2023-05-20T02:26:26;11.48;;;5.55;;
60917;SDS011;46792;38.854;-9.384;2023-05-20T02:28:27;24.60;;;5.25;;
60917;SDS011;46792;38.854;-9.384;2023-05-20T02:35:53;12.20;;;5.18;;
60917;SDS011;46792;38.854;-9.384;2023-05-20T02:37:54;16.83;;;5.30;;
60917;SDS011;46792;38.854;-9.384;2023-05-20T02:39:55;19.10;;;5.10;;
60917;SDS011;46792;38.854;-9.384;2023-05-20T02:47:13;14.20;;;5.15;;
60917;SDS011;46792;38.854;-9.384;2023-05-20T02:49:15;16.50;;;6.13;;
60917;SDS011;46792;38.854;-9.384;2023-05-20T03:02:07;13.82;;;5.28;;
60917;SDS011;46792;38.854;-9.384;2023-05-20T03:04:08;15.95;;;5.40;;
60917;SDS011;46792;38.854;-9.384;2023-05-20T03:06:10;14.90;;;6.50;;
60917;SDS011;46792;38.854;-9.384;2023-05-20T03:08:11;19.40;;;5.80;;
60917;SDS011;46792;38.854;-9.384;2023-05-20T03:10:30;13.35;;;5.30;;
60917;SDS011;46792;38.854;-9.384;2023-05-20T03:17:47;19.48;;;4.90;;
60917;SDS011;46792;38.854;-9.384;2023-05-20T03:19:48;11.15;;;4.72;;
60917;SDS011;46792;38.854;-9.384;2023-05-20T03:24:08;8.98;;;4.57;;
60917;SDS011;46792;38.854;-9.384;2023-05-20T03:26:10;11.88;;;4.78;;
60917;SDS011;46792;38.854;-9.384;2023-05-20T03:28:29;13.43;;;5.15;;
60917;SDS011;46792;38.854;-9.384;2023-05-20T03:30:48;12.88;;;4.65;;
60917;SDS011;46792;38.854;-9.384;2023-05-20T03:32:50;11.10;;;4.68;;
60917;SDS011;46792;38.854;-9.384;2023-05-20T03:34:51;10.40;;;5.10;;
60917;SDS011;46792;38.854;-9.384;2023-05-20T03:36:51;13.90;;;4.82;;
60917;SDS011;46792;38.854;-9.384;2023-05-20T03:38:52;9.07;;;4.80;;
60917;SDS011;46792;38.854;-9.384;2023-05-20T03:40:53;12.50;;;4.18;;
60917;SDS011;46792;38.854;-9.384;2023-05-20T03:42:53;9.38;;;3.92;;
60917;SDS011;46792;38.854;-9.384;2023-05-20T03:45:13;7.35;;;4.28;;
60917;SDS011;46792;38.854;-9.384;2023-05-20T03:47:21;10.18;;;4.00;;
60917;SDS011;46792;38.854;-9.384;2023-05-20T03:49:22;12.27;;;4.03;;
60917;SDS011;46792;38.854;-9.384;2023-05-20T03:51:23;6.55;;;4.00;;
60917;SDS011;46792;38.854;-9.384;2023-05-20T03:53:24;17.42;;;4.95;;
60917;SDS011;46792;38.854;-9.384;2023-05-20T03:55:25;8.70;;;3.92;;
60917;SDS011;46792;38.854;-9.384;2023-05-20T03:57:45;7.07;;;4.28;;
60917;SDS011;46792;38.854;-9.384;2023-05-20T03:59:46;6.07;;;3.80;;
60917;SDS011;46792;38.854;-9.384;2023-05-20T04:01:46;6.90;;;3.47;;
60917;SDS011;46792;38.854;-9.384;2023-05-20T04:03:47;8.13;;;4.18;;
60917;SDS011;46792;38.854;-9.384;2023-05-20T04:06:06;9.00;;;3.58;;
60917;SDS011;46792;38.854;-9.384;2023-05-20T04:08:07;8.95;;;4.15;;
60917;SDS011;46792;38.854;-9.384;2023-05-20T04:10:27;6.75;;;4.45;;
60917;SDS011;46792;38.854;-9.384;2023-05-20T04:12:28;5.13;;;3.97;;
60917;SDS011;46792;38.854;-9.384;2023-05-20T04:14:30;7.88;;;4.07;;
60917;SDS011;46792;38.854;-9.384;2023-05-20T04:16:34;10.85;;;3.75;;
60917;SDS011;46792;38.854;-9.384;2023-05-20T04:18:55;5.80;;;3.45;;
60917;SDS011;46792;38.854;-9.384;2023-05-20T04:20:58;6.80;;;4.10;;
60917;SDS011;46792;38.854;-9.384;2023-05-20T04:23:01;6.65;;;3.95;;
60917;SDS011;46792;38.854;-9.384;2023-05-20T04:25:01;9.93;;;3.90;;
60917;SDS011;46792;38.854;-9.384;2023-05-20T04:27:04;8.50;;;3.72;;
60917;SDS011;46792;38.854;-9.384;2023-05-20T04:29:05;10.20;;;4.40;;
60917;SDS011;46792;38.854;-9.384;2023-05-20T04:31:07;11.25;;;4.40;;
60917;SDS011;46792;38.854;-9.384;2023-05-20T04:33:10;9.38;;;5.10;;
60917;SDS011;46792;38.854;-9.384;2023-05-20T04:35:29;12.02;;;4.63;;
60917;SDS011;46792;38.854;-9.384;2023-05-20T04:39:36;8.43;;;5.20;;
60917;SDS011;46792;38.854;-9.384;2023-05-20T04:41:43;8.52;;;4.97;;
60917;SDS011;46792;38.854;-9.384;2023-05-20T04:43:44;12.73;;;5.18;;
60917;SDS011;46792;38.854;-9.384;2023-05-20T04:46:03;10.73;;;5.30;;
60917;SDS011;46792;38.854;-9.384;2023-05-20T04:48:05;9.43;;;5.60;;
60917;SDS011;46792;38.854;-9.384;2023-05-20T04:50:15;8.23;;;5.07;;
60917;SDS011;46792;38.854;-9.384;2023-05-20T04:52:15;12.07;;;5.13;;
60917;SDS011;46792;38.854;-9.384;2023-05-20T04:54:17;9.50;;;4.30;;
60917;SDS011;46792;38.854;-9.384;2023-05-20T04:56:19;7.90;;;4.47;;
60917;SDS011;46792;38.854;-9.384;2023-05-20T04:58:41;9.80;;;4.20;;
60917;SDS011;46792;38.854;-9.384;2023-05-20T05:01:00;12.70;;;4.53;;
60917;SDS011;46792;38.854;-9.384;2023-05-20T05:03:20;8.18;;;3.83;;
60917;SDS011;46792;38.854;-9.384;2023-05-20T05:05:21;6.60;;;4.65;;
60917;SDS011;46792;38.854;-9.384;2023-05-20T05:07:22;9.13;;;4.45;;
60917;SDS011;46792;38.854;-9.384;2023-05-20T05:09:23;9.52;;;4.65;;
60917;SDS011;46792;38.854;-9.384;2023-05-20T05:11:42;7.72;;;4.53;;
60917;SDS011;46792;38.854;-9.384;2023-05-20T05:14:01;11.90;;;3.95;;
60917;SDS011;46792;38.854;-9.384;2023-05-20T05:16:03;6.47;;;3.92;;
60917;SDS011;46792;38.854;-9.384;2023-05-20T05:18:05;10.18;;;4.18;;
60917;SDS011;46792;38.854;-9.384;2023-05-20T05:20:24;8.65;;;3.90;;
60917;SDS011;46792;38.854;-9.384;2023-05-20T05:22:46;6.47;;;3.67;;
60917;SDS011;46792;38.854;-9.384;2023-05-20T05:24:47;4.10;;;3.20;;
60917;SDS011;46792;38.854;-9.384;2023-05-20T05:26:52;6.65;;;3.80;;
60917;SDS011;46792;38.854;-9.384;2023-05-20T05:28:56;14.82;;;3.50;;
60917;SDS011;46792;38.854;-9.384;2023-05-20T05:30:57;5.47;;;3.50;;
60917;SDS011;46792;38.854;-9.384;2023-05-20T05:32:59;7.28;;;3.50;;
60917;SDS011;46792;38.854;-9.384;2023-05-20T05:35:00;8.25;;;3.60;;
60917;SDS011;46792;38.854;-9.384;2023-05-20T05:37:02;5.32;;;3.30;;
60917;SDS011;46792;38.854;-9.384;2023-05-20T05:39:02;5.85;;;3.47;;
60917;SDS011;46792;38.854;-9.384;2023-05-20T05:41:03;9.68;;;3.08;;
60917;SDS011;46792;38.854;-9.384;2023-05-20T05:43:04;6.88;;;3.70;;
60917;SDS011;46792;38.854;-9.384;2023-05-20T05:45:05;10.27;;;3.17;;
60917;SDS011;46792;38.854;-9.384;2023-05-20T05:47:06;7.00;;;3.78;;
60917;SDS011;46792;38.854;-9.384;2023-05-20T05:49:07;4.75;;;3.33;;
60917;SDS011;46792;38.854;-9.384;2023-05-20T05:56:06;3.58;;;3.13;;
60917;SDS011;46792;38.854;-9.384;2023-05-20T05:58:07;7.20;;;3.53;;
60917;SDS011;46792;38.854;-9.384;2023-05-20T06:00:08;5.63;;;3.22;;
60917;SDS011;46792;38.854;-9.384;2023-05-20T06:08:05;8.68;;;3.17;;
60917;SDS011;46792;38.854;-9.384;2023-05-20T06:10:08;6.85;;;3.47;;
60917;SDS011;46792;38.854;-9.384;2023-05-20T06:12:09;11.77;;;3.65;;
60917;SDS011;46792;38.854;-9.384;2023-05-20T06:14:28;10.73;;;3.72;;
60917;SDS011;46792;38.854;-9.384;2023-05-20T06:21:47;6.65;;;3.60;;
60917;SDS011;46792;38.854;-9.384;2023-05-20T06:23:48;11.10;;;3.20;;
60917;SDS011;46792;38.854;-9.384;2023-05-20T06:28:49;8.27;;;3.00;;
60917;SDS011;46792;38.854;-9.384;2023-05-20T06:30:50;9.77;;;3.75;;
60917;SDS011;46792;38.854;-9.384;2023-05-20T06:32:53;5.63;;;3.22;;
60917;SDS011;46792;38.854;-9.384;2023-05-20T06:34:54;4.32;;;2.85;;
60917;SDS011;46792;38.854;-9.384;2023-05-20T06:36:56;5.57;;;2.60;;
60917;SDS011;46792;38.854;-9.384;2023-05-20T06:38:56;4.47;;;3.38;;
60917;SDS011;46792;38.854;-9.384;2023-05-20T06:40:58;8.02;;;3.28;;
60917;SDS011;46792;38.854;-9.384;2023-05-20T06:42:58;4.13;;;2.90;;
60917;SDS011;46792;38.854;-9.384;2023-05-20T06:45:19;9.18;;;4.35;;
60917;SDS011;46792;38.854;-9.384;2023-05-20T06:55:30;5.32;;;2.97;;
60917;SDS011;46792;38.854;-9.384;2023-05-20T06:57:31;5.20;;;2.88;;
60917;SDS011;46792;38.854;-9.384;2023-05-20T06:59:50;5.95;;;3.42;;
60917;SDS011;46792;38.854;-9.384;2023-05-20T07:04:49;5.47;;;3.17;;
60917;SDS011;46792;38.854;-9.384;2023-05-20T07:07:10;6.03;;;2.95;;
60917;SDS011;46792;38.854;-9.384;2023-05-20T07:09:10;3.08;;;2.67;;
60917;SDS011;46792;38.854;-9.384;2023-05-20T07:11:30;9.13;;;2.95;;
60917;SDS011;46792;38.854;-9.384;2023-05-20T07:13:30;5.97;;;3.15;;
60917;SDS011;46792;38.854;-9.384;2023-05-20T07:15:32;7.72;;;3.45;;
60917;SDS011;46792;38.854;-9.384;2023-05-20T07:17:33;5.25;;;2.95;;
60917;SDS011;46792;38.854;-9.384;2023-05-20T07:19:33;6.65;;;3.38;;
60917;SDS011;46792;38.854;-9.384;2023-05-20T07:24:30;9.18;;;3.75;;
60917;SDS011;46792;38.854;-9.384;2023-05-20T07:26:31;5.63;;;3.42;;
60917;SDS011;46792;38.854;-9.384;2023-05-20T07:31:56;7.93;;;3.65;;
60917;SDS011;46792;38.854;-9.384;2023-05-20T07:34:16;7.30;;;3.88;;
60917;SDS011;46792;38.854;-9.384;2023-05-20T07:36:16;10.77;;;4.18;;
60917;SDS011;46792;38.854;-9.384;2023-05-20T07:38:20;6.75;;;4.28;;
60917;SDS011;46792;38.854;-9.384;2023-05-20T07:40:27;16.73;;;3.90;;
60917;SDS011;46792;38.854;-9.384;2023-05-20T07:42:28;8.23;;;3.40;;
60917;SDS011;46792;38.854;-9.384;2023-05-20T07:46:33;5.53;;;3.88;;
60917;SDS011;46792;38.854;-9.384;2023-05-20T07:48:34;15.68;;;4.07;;
60917;SDS011;46792;38.854;-9.384;2023-05-20T07:50:53;11.35;;;4.78;;
60917;SDS011;46792;38.854;-9.384;2023-05-20T07:53:16;6.97;;;4.05;;
60917;SDS011;46792;38.854;-9.384;2023-05-20T07:55:18;21.55;;;4.82;;
60917;SDS011;46792;38.854;-9.384;2023-05-20T07:57:38;11.68;;;4.60;;
60917;SDS011;46792;38.854;-9.384;2023-05-20T07:59:58;7.90;;;4.00;;
60917;SDS011;46792;38.854;-9.384;2023-05-20T08:02:17;9.65;;;4.72;;
60917;SDS011;46792;38.854;-9.384;2023-05-20T08:04:18;11.63;;;4.38;;
60917;SDS011;46792;38.854;-9.384;2023-05-20T08:11:07;13.65;;;3.95;;
60917;SDS011;46792;38.854;-9.384;2023-05-20T08:13:08;13.77;;;4.40;;
60917;SDS011;46792;38.854;-9.384;2023-05-20T08:15:09;11.73;;;4.30;;
60917;SDS011;46792;38.854;-9.384;2023-05-20T08:17:11;15.63;;;4.40;;
60917;SDS011;46792;38.854;-9.384;2023-05-20T08:19:12;7.28;;;3.92;;
60917;SDS011;46792;38.854;-9.384;2023-05-20T08:21:31;6.75;;;4.45;;
60917;SDS011;46792;38.854;-9.384;2023-05-20T08:26:10;11.88;;;4.00;;
60917;SDS011;46792;38.854;-9.384;2023-05-20T08:28:48;10.55;;;4.63;;
60917;SDS011;46792;38.854;-9.384;2023-05-20T08:30:50;7.90;;;4.32;;
60917;SDS011;46792;38.854;-9.384;2023-05-20T08:32:51;5.10;;;3.83;;
60917;SDS011;46792;38.854;-9.384;2023-05-20T08:34:51;6.22;;;4.30;;
60917;SDS011;46792;38.854;-9.384;2023-05-20T08:36:52;8.45;;;4.72;;
60917;SDS011;46792;38.854;-9.384;2023-05-20T08:38:53;9.38;;;4.35;;
60917;SDS011;46792;38.854;-9.384;2023-05-20T08:40:55;9.50;;;4.70;;
60917;SDS011;46792;38.854;-9.384;2023-05-20T08:42:57;10.32;;;4.53;;
60917;SDS011;46792;38.854;-9.384;2023-05-20T08:44:58;15.60;;;4.38;;
60917;SDS011;46792;38.854;-9.384;2023-05-20T08:47:02;23.20;;;4.30;;
60917;SDS011;46792;38.854;-9.384;2023-05-20T08:49:08;16.75;;;4.57;;
60917;SDS011;46792;38.854;-9.384;2023-05-20T08:51:27;10.90;;;4.45;;
60917;SDS011;46792;38.854;-9.384;2023-05-20T08:53:49;15.95;;;4.55;;
60917;SDS011;46792;38.854;-9.384;2023-05-20T08:55:54;19.63;;;4.22;;
60917;SDS011;46792;38.854;-9.384;2023-05-20T08:58:02;12.13;;;3.85;;
60917;SDS011;46792;38.854;-9.384;2023-05-20T09:00:03;7.05;;;4.10;;
60917;SDS011;46792;38.854;-9.384;2023-05-20T09:02:12;7.93;;;3.47;;
60917;SDS011;46792;38.854;-9.384;2023-05-20T09:04:13;9.40;;;4.63;;
60917;SDS011;46792;38.854;-9.384;2023-05-20T09:06:15;7.00;;;3.70;;
60917;SDS011;46792;38.854;-9.384;2023-05-20T09:08:35;5.97;;;3.55;;
60917;SDS011;46792;38.854;-9.384;2023-05-20T09:10:37;7.53;;;3.85;;
60917;SDS011;46792;38.854;-9.384;2023-05-20T09:12:38;9.10;;;3.97;;
60917;SDS011;46792;38.854;-9.384;2023-05-20T09:14:39;18.25;;;3.88;;
60917;SDS011;46792;38.854;-9.384;2023-05-20T09:16:40;7.20;;;3.30;;
60917;SDS011;46792;38.854;-9.384;2023-05-20T09:18:40;13.98;;;3.80;;
60917;SDS011;46792;38.854;-9.384;2023-05-20T09:20:45;16.95;;;3.85;;
60917;SDS011;46792;38.854;-9.384;2023-05-20T09:22:46;8.75;;;3.67;;
60917;SDS011;46792;38.854;-9.384;2023-05-20T09:24:53;15.50;;;3.65;;
60917;SDS011;46792;38.854;-9.384;2023-05-20T09:26:54;6.30;;;3.50;;
60917;SDS011;46792;38.854;-9.384;2023-05-20T09:28:55;9.70;;;3.42;;
60917;SDS011;46792;38.854;-9.384;2023-05-20T09:31:15;4.20;;;3.17;;
60917;SDS011;46792;38.854;-9.384;2023-05-20T09:33:35;5.57;;;3.42;;
60917;SDS011;46792;38.854;-9.384;2023-05-20T09:36:04;10.35;;;3.25;;
60917;SDS011;46792;38.854;-9.384;2023-05-20T09:38:07;7.30;;;4.10;;
60917;SDS011;46792;38.854;-9.384;2023-05-20T09:40:11;7.65;;;3.13;;
60917;SDS011;46792;38.854;-9.384;2023-05-20T09:42:16;8.73;;;3.22;;
60917;SDS011;46792;38.854;-9.384;2023-05-20T09:44:40;7.15;;;3.17;;
60917;SDS011;46792;38.854;-9.384;2023-05-20T09:46:42;8.90;;;3.15;;
60917;SDS011;46792;38.854;-9.384;2023-05-20T09:48:43;14.95;;;3.83;;
60917;SDS011;46792;38.854;-9.384;2023-05-20T09:50:44;9.80;;;3.50;;
60917;SDS011;46792;38.854;-9.384;2023-05-20T09:52:45;6.10;;;2.97;;
60917;SDS011;46792;38.854;-9.384;2023-05-20T09:54:47;4.72;;;3.08;;
60917;SDS011;46792;38.854;-9.384;2023-05-20T09:56:50;8.98;;;3.60;;
60917;SDS011;46792;38.854;-9.384;2023-05-20T09:58:52;8.73;;;3.95;;
60917;SDS011;46792;38.854;-9.384;2023-05-20T10:00:57;9.65;;;4.50;;
60917;SDS011;46792;38.854;-9.384;2023-05-20T10:02:58;7.43;;;3.40;;
60917;SDS011;46792;38.854;-9.384;2023-05-20T10:04:59;11.10;;;4.70;;
60917;SDS011;46792;38.854;-9.384;2023-05-20T10:20:48;8.85;;;3.30;;
60917;SDS011;46792;38.854;-9.384;2023-05-20T10:22:55;10.98;;;3.70;;
60917;SDS011;46792;38.854;-9.384;2023-05-20T10:24:58;6.47;;;3.03;;
60917;SDS011;46792;38.854;-9.384;2023-05-20T10:27:00;9.68;;;3.75;;
60917;SDS011;46792;38.854;-9.384;2023-05-20T10:29:12;9.07;;;3.67;;
60917;SDS011;46792;38.854;-9.384;2023-05-20T10:33:16;8.20;;;4.20;;
60917;SDS011;46792;38.854;-9.384;2023-05-20T10:35:20;11.75;;;4.05;;
60917;SDS011;46792;38.854;-9.384;2023-05-20T10:37:42;3.80;;;3.35;;
60917;SDS011;46792;38.854;-9.384;2023-05-20T10:40:13;5.05;;;3.85;;
60917;SDS011;46792;38.854;-9.384;2023-05-20T10:47:56;13.65;;;4.35;;
60917;SDS011;46792;38.854;-9.384;2023-05-20T10:49:57;15.27;;;4.55;;
60917;SDS011;46792;38.854;-9.384;2023-05-20T10:51:58;6.63;;;4.07;;
60917;SDS011;46792;38.854;-9.384;2023-05-20T10:53:59;14.45;;;5.78;;
60917;SDS011;46792;38.854;-9.384;2023-05-20T10:56:20;14.25;;;4.55;;
60917;SDS011;46792;38.854;-9.384;2023-05-20T11:01:03;10.82;;;4.40;;
60917;SDS011;46792;38.854;-9.384;2023-05-20T11:06:09;15.18;;;4.40;;
60917;SDS011;46792;38.854;-9.384;2023-05-20T11:08:15;9.45;;;4.10;;
60917;SDS011;46792;38.854;-9.384;2023-05-20T11:10:15;5.35;;;3.67;;
60917;SDS011;46792;38.854;-9.384;2023-05-20T11:12:16;6.07;;;3.38;;
60917;SDS011;46792;38.854;-9.384;2023-05-20T11:14:35;7.00;;;3.55;;
60917;SDS011;46792;38.854;-9.384;2023-05-20T11:16:57;10.88;;;3.83;;
60917;SDS011;46792;38.854;-9.384;2023-05-20T11:21:55;19.58;;;4.72;;
60917;SDS011;46792;38.854;-9.384;2023-05-20T11:23:56;14.15;;;5.32;;
60917;SDS011;46792;38.854;-9.384;2023-05-20T11:25:56;14.27;;;4.32;;
60917;SDS011;46792;38.854;-9.384;2023-05-20T11:27:57;13.65;;;4.57;;
60917;SDS011;46792;38.854;-9.384;2023-05-20T11:29:58;9.65;;;3.60;;
60917;SDS011;46792;38.854;-9.384;2023-05-20T11:31:59;14.20;;;3.92;;
60917;SDS011;46792;38.854;-9.384;2023-05-20T11:34:00;12.15;;;5.07;;
60917;SDS011;46792;38.854;-9.384;2023-05-20T11:36:01;12.60;;;5.20;;
60917;SDS011;46792;38.854;-9.384;2023-05-20T11:38:03;9.02;;;3.72;;
60917;SDS011;46792;38.854;-9.384;2023-05-20T11:40:06;9.50;;;3.85;;
60917;SDS011;46792;38.854;-9.384;2023-05-20T11:44:13;17.05;;;4.15;;
60917;SDS011;46792;38.854;-9.384;2023-05-20T11:46:14;12.63;;;5.22;;
60917;SDS011;46792;38.854;-9.384;2023-05-20T11:48:14;16.13;;;4.63;;
60917;SDS011;46792;38.854;-9.384;2023-05-20T11:50:27;18.85;;;4.07;;
60917;SDS011;46792;38.854;-9.384;2023-05-20T11:52:32;16.02;;;3.88;;
60917;SDS011;46792;38.854;-9.384;2023-05-20T11:54:36;14.73;;;5.00;;
60917;SDS011;46792;38.854;-9.384;2023-05-20T11:56:37;12.80;;;3.97;;
60917;SDS011;46792;38.854;-9.384;2023-05-20T11:58:59;14.85;;;4.72;;
60917;SDS011;46792;38.854;-9.384;2023-05-20T12:01:19;10.38;;;4.18;;
60917;SDS011;46792;38.854;-9.384;2023-05-20T12:03:38;23.00;;;4.63;;
60917;SDS011;46792;38.854;-9.384;2023-05-20T12:05:39;7.97;;;3.70;;
60917;SDS011;46792;38.854;-9.384;2023-05-20T12:07:58;23.77;;;4.28;;
60917;SDS011;46792;38.854;-9.384;2023-05-20T12:09:59;20.42;;;4.70;;
60917;SDS011;46792;38.854;-9.384;2023-05-20T12:11:59;15.68;;;4.47;;
60917;SDS011;46792;38.854;-9.384;2023-05-20T12:14:00;17.17;;;4.78;;
60917;SDS011;46792;38.854;-9.384;2023-05-20T12:16:20;24.55;;;4.82;;
60917;SDS011;46792;38.854;-9.384;2023-05-20T12:18:39;15.85;;;4.10;;
60917;SDS011;46792;38.854;-9.384;2023-05-20T12:20:39;13.07;;;5.03;;
60917;SDS011;46792;38.854;-9.384;2023-05-20T12:22:41;15.13;;;4.93;;
60917;SDS011;46792;38.854;-9.384;2023-05-20T12:25:01;17.90;;;4.50;;
60917;SDS011;46792;38.854;-9.384;2023-05-20T12:27:02;17.50;;;5.40;;
60917;SDS011;46792;38.854;-9.384;2023-05-20T12:29:06;10.73;;;5.13;;
60917;SDS011;46792;38.854;-9.384;2023-05-20T12:31:07;16.98;;;4.63;;
60917;SDS011;46792;38.854;-9.384;2023-05-20T12:33:09;14.23;;;3.80;;
60917;SDS011;46792;38.854;-9.384;2023-05-20T12:35:10;13.07;;;4.07;;
60917;SDS011;46792;38.854;-9.384;2023-05-20T12:37:11;8.10;;;3.83;;
60917;SDS011;46792;38.854;-9.384;2023-05-20T12:39:30;11.73;;;4.20;;
60917;SDS011;46792;38.854;-9.384;2023-05-20T12:41:31;17.73;;;4.90;;
60917;SDS011;46792;38.854;-9.384;2023-05-20T12:43:31;7.68;;;3.78;;
60917;SDS011;46792;38.854;-9.384;2023-05-20T12:45:32;10.63;;;4.05;;
60917;SDS011;46792;38.854;-9.384;2023-05-20T12:47:33;29.92;;;5.05;;
60917;SDS011;46792;38.854;-9.384;2023-05-20T12:49:34;12.43;;;4.22;;
60917;SDS011;46792;38.854;-9.384;2023-05-20T12:51:34;10.35;;;4.00;;
60917;SDS011;46792;38.854;-9.384;2023-05-20T12:53:35;7.72;;;3.58;;
60917;SDS011;46792;38.854;-9.384;2023-05-20T12:55:35;12.23;;;4.05;;
60917;SDS011;46792;38.854;-9.384;2023-05-20T12:57:40;11.85;;;3.28;;
60917;SDS011;46792;38.854;-9.384;2023-05-20T12:59:43;9.00;;;3.60;;
60917;SDS011;46792;38.854;-9.384;2023-05-20T13:01:44;17.20;;;4.55;;
60917;SDS011;46792;38.854;-9.384;2023-05-20T13:03:44;15.35;;;4.28;;
60917;SDS011;46792;38.854;-9.384;2023-05-20T13:05:46;8.43;;;3.65;;
60917;SDS011;46792;38.854;-9.384;2023-05-20T13:07:46;21.63;;;4.50;;
60917;SDS011;46792;38.854;-9.384;2023-05-20T13:10:06;9.40;;;3.75;;
60917;SDS011;46792;38.854;-9.384;2023-05-20T13:12:09;8.77;;;3.70;;
60917;SDS011;46792;38.854;-9.384;2023-05-20T13:14:10;10.57;;;3.67;;
60917;SDS011;46792;38.854;-9.384;2023-05-20T13:16:10;9.15;;;3.55;;
60917;SDS011;46792;38.854;-9.384;2023-05-20T13:18:11;12.32;;;3.72;;
60917;SDS011;46792;38.854;-9.384;2023-05-20T13:20:12;10.60;;;3.42;;
60917;SDS011;46792;38.854;-9.384;2023-05-20T13:22:12;10.25;;;3.47;;
60917;SDS011;46792;38.854;-9.384;2023-05-20T13:24:16;9.13;;;3.53;;
60917;SDS011;46792;38.854;-9.384;2023-05-20T13:26:17;12.02;;;3.67;;
60917;SDS011;46792;38.854;-9.384;2023-05-20T13:28:18;13.10;;;3.92;;
60917;SDS011;46792;38.854;-9.384;2023-05-20T13:30:19;8.75;;;3.70;;
60917;SDS011;46792;38.854;-9.384;2023-05-20T13:32:20;14.52;;;4.65;;
60917;SDS011;46792;38.854;-9.384;2023-05-20T13:34:35;8.90;;;3.53;;
60917;SDS011;46792;38.854;-9.384;2023-05-20T13:36:37;14.98;;;4.05;;
60917;SDS011;46792;38.854;-9.384;2023-05-20T13:38:39;13.50;;;3.50;;
60917;SDS011;46792;38.854;-9.384;2023-05-20T13:40:40;10.65;;;4.07;;
60917;SDS011;46792;38.854;-9.384;2023-05-20T13:42:59;20.75;;;3.97;;
60917;SDS011;46792;38.854;-9.384;2023-05-20T13:50:34;11.20;;;3.63;;
60917;SDS011;46792;38.854;-9.384;2023-05-20T13:52:35;8.23;;;3.40;;
60917;SDS011;46792;38.854;-9.384;2023-05-20T14:05:30;18.48;;;3.20;;
60917;SDS011;46792;38.854;-9.384;2023-05-20T14:07:50;8.50;;;4.47;;
60917;SDS011;46792;38.854;-9.384;2023-05-20T14:09:50;7.95;;;3.05;;
60917;SDS011;46792;38.854;-9.384;2023-05-20T14:11:51;8.77;;;3.72;;
60917;SDS011;46792;38.854;-9.384;2023-05-20T14:14:10;11.98;;;3.55;;
60917;SDS011;46792;38.854;-9.384;2023-05-20T14:16:29;8.73;;;3.15;;
60917;SDS011;46792;38.854;-9.384;2023-05-20T14:18:49;20.77;;;3.25;;
60917;SDS011;46792;38.854;-9.384;2023-05-20T14:23:28;10.07;;;3.33;;
60917;SDS011;46792;38.854;-9.384;2023-05-20T14:29:02;9.05;;;3.17;;
60917;SDS011;46792;38.854;-9.384;2023-05-20T14:31:03;9.00;;;3.22;;
60917;SDS011;46792;38.854;-9.384;2023-05-20T14:33:22;6.80;;;3.00;;
60917;SDS011;46792;38.854;-9.384;2023-05-20T14:35:41;7.07;;;3.30;;
60917;SDS011;46792;38.854;-9.384;2023-05-20T14:37:41;5.45;;;2.70;;
60917;SDS011;46792;38.854;-9.384;2023-05-20T14:39:42;10.65;;;3.53;;
60917;SDS011;46792;38.854;-9.384;2023-05-20T14:41:43;10.13;;;2.80;;
60917;SDS011;46792;38.854;-9.384;2023-05-20T14:43:43;9.48;;;3.25;;
60917;SDS011;46792;38.854;-9.384;2023-05-20T14:54:16;8.85;;;3.13;;
60917;SDS011;46792;38.854;-9.384;2023-05-20T14:56:18;11.23;;;3.50;;
60917;SDS011;46792;38.854;-9.384;2023-05-20T14:58:18;7.53;;;3.47;;
60917;SDS011;46792;38.854;-9.384;2023-05-20T15:00:19;8.57;;;3.40;;
60917;SDS011;46792;38.854;-9.384;2023-05-20T15:02:35;16.92;;;3.88;;
60917;SDS011;46792;38.854;-9.384;2023-05-20T15:04:35;7.97;;;3.40;;
60917;SDS011;46792;38.854;-9.384;2023-05-20T15:06:36;9.38;;;3.58;;